sensor_id;sensor_type;location;lat;lon;timestamp;pressure;altitude;pressure_sealevel;temperature;humidity
5780;BME280;2916;49.798;10.022;2023-08-31T00:01:45;147591.31;;;13.43;100.00
5780;BME280;2916;49.798;10.022;2023-08-31T00:04:14;147587.59;;;13.41;100.00
5780;BME280;2916;49.798;10.022;2023-08-31T00:06:41;147603.78;;;13.48;100.00
5780;BME280;2916;49.798;10.022;2023-08-31T00:09:10;147605.03;;;13.48;100.00
5780;BME280;2916;49.798;10.022;2023-08-31T00:11:38;147603.78;;;13.48;100.00
5780;BME280;2916;49.798;10.022;2023-08-31T00:14:07;147601.25;;;13.47;100.00
5780;BME280;2916;49.798;10.022;2023-08-31T00:16:34;147591.31;;;13.43;100.00
5780;BME280;2916;49.798;10.022;2023-08-31T00:19:03;147593.78;;;13.44;100.00
5780;BME280;2916;49.798;10.022;2023-08-31T00:21:30;147588.84;;;13.42;100.00
5780;BME280;2916;49.798;10.022;2023-08-31T00:23:57;147561.47;;;13.31;100.00
5780;BME280;2916;49.798;10.022;2023-08-31T00:26:25;147562.72;;;13.31;100.00
5780;BME280;2916;49.798;10.022;2023-08-31T00:28:52;147560.25;;;13.30;100.00
5780;BME280;2916;49.798;10.022;2023-08-31T00:31:20;147568.94;;;13.34;100.00
5780;BME280;2916;49.798;10.022;2023-08-31T00:33:48;147556.53;;;13.29;100.00
5780;BME280;2916;49.798;10.022;2023-08-31T00:36:15;147568.94;;;13.34;100.00
5780;BME280;2916;49.798;10.022;2023-08-31T00:38:44;147556.53;;;13.29;100.00
5780;BME280;2916;49.798;10.022;2023-08-31T00:41:12;147469.44;;;12.93;100.00
5780;BME280;2916;49.798;10.022;2023-08-31T00:43:39;147541.53;;;13.22;100.00
5780;BME280;2916;49.798;10.022;2023-08-31T00:46:06;147561.47;;;13.31;100.00
5780;BME280;2916;49.798;10.022;2023-08-31T00:48:35;147566.47;;;13.33;100.00
5780;BME280;2916;49.798;10.022;2023-08-31T00:51:03;147559.00;;;13.30;100.00
5780;BME280;2916;49.798;10.022;2023-08-31T00:53:32;147555.25;;;13.28;100.00
5780;BME280;2916;49.798;10.022;2023-08-31T00:56:01;147549.06;;;13.25;100.00
5780;BME280;2916;49.798;10.022;2023-08-31T00:58:29;147542.84;;;13.23;100.00
5780;BME280;2916;49.798;10.022;2023-08-31T01:01:04;147531.59;;;13.18;100.00
5780;BME280;2916;49.798;10.022;2023-08-31T01:03:45;147537.84;;;13.21;100.00
5780;BME280;2916;49.798;10.022;2023-08-31T01:06:27;147541.53;;;13.22;100.00
5780;BME280;2916;49.798;10.022;2023-08-31T01:09:08;147560.25;;;13.30;100.00
5780;BME280;2916;49.798;10.022;2023-08-31T01:11:56;147546.59;;;13.24;100.00
5780;BME280;2916;49.798;10.022;2023-08-31T01:14:31;147509.25;;;13.09;100.00
5780;BME280;2916;49.798;10.022;2023-08-31T01:17:02;147566.47;;;13.33;100.00
5780;BME280;2916;49.798;10.022;2023-08-31T01:19:45;147571.44;;;13.35;100.00
5780;BME280;2916;49.798;10.022;2023-08-31T01:22:24;147561.47;;;13.31;100.00
5780;BME280;2916;49.798;10.022;2023-08-31T01:24:56;147511.72;;;13.10;100.00
5780;BME280;2916;49.798;10.022;2023-08-31T01:27:24;147560.25;;;13.30;100.00
5780;BME280;2916;49.798;10.022;2023-08-31T01:29:54;147546.59;;;13.24;100.00
5780;BME280;2916;49.798;10.022;2023-08-31T01:32:21;147567.72;;;13.33;100.00
5780;BME280;2916;49.798;10.022;2023-08-31T01:34:51;147566.47;;;13.33;100.00
5780;BME280;2916;49.798;10.022;2023-08-31T01:37:28;147566.47;;;13.33;100.00
5780;BME280;2916;49.798;10.022;2023-08-31T01:40:06;147531.59;;;13.18;100.00
5780;BME280;2916;49.798;10.022;2023-08-31T01:42:37;147535.31;;;13.20;100.00
5780;BME280;2916;49.798;10.022;2023-08-31T01:45:07;147531.59;;;13.18;100.00
5780;BME280;2916;49.798;10.022;2023-08-31T01:47:36;147526.59;;;13.16;100.00
5780;BME280;2916;49.798;10.022;2023-08-31T01:50:04;147521.66;;;13.14;100.00
5780;BME280;2916;49.798;10.022;2023-08-31T01:52:31;147506.72;;;13.08;100.00
5780;BME280;2916;49.798;10.022;2023-08-31T01:54:59;147527.88;;;13.17;100.00
5780;BME280;2916;49.798;10.022;2023-08-31T01:57:26;147526.59;;;13.16;100.00
5780;BME280;2916;49.798;10.022;2023-08-31T01:59:54;147511.72;;;13.10;100.00
5780;BME280;2916;49.798;10.022;2023-08-31T02:02:21;147524.13;;;13.15;100.00
5780;BME280;2916;49.798;10.022;2023-08-31T02:04:48;147519.19;;;13.13;100.00
5780;BME280;2916;49.798;10.022;2023-08-31T02:07:16;147524.13;;;13.15;100.00
5780;BME280;2916;49.798;10.022;2023-08-31T02:09:44;147510.47;;;13.10;100.00
5780;BME280;2916;49.798;10.022;2023-08-31T02:12:16;147506.72;;;13.08;100.00
5780;BME280;2916;49.798;10.022;2023-08-31T02:14:43;147496.78;;;13.04;100.00
5780;BME280;2916;49.798;10.022;2023-08-31T02:17:10;147471.94;;;12.94;100.00
5780;BME280;2916;49.798;10.022;2023-08-31T02:19:37;147464.47;;;12.91;100.00
5780;BME280;2916;49.798;10.022;2023-08-31T02:22:04;147449.53;;;12.85;100.00
5780;BME280;2916;49.798;10.022;2023-08-31T02:24:31;147437.13;;;12.80;100.00
5780;BME280;2916;49.798;10.022;2023-08-31T02:26:57;147435.91;;;12.79;100.00
5780;BME280;2916;49.798;10.022;2023-08-31T02:29:26;147432.19;;;12.77;100.00
5780;BME280;2916;49.798;10.022;2023-08-31T02:31:53;147409.78;;;12.68;100.00
5780;BME280;2916;49.798;10.022;2023-08-31T02:34:21;147402.31;;;12.65;100.00
5780;BME280;2916;49.798;10.022;2023-08-31T02:36:48;147382.44;;;12.57;100.00
5780;BME280;2916;49.798;10.022;2023-08-31T02:39:15;147370.03;;;12.52;100.00
5780;BME280;2916;49.798;10.022;2023-08-31T02:41:42;147372.50;;;12.53;100.00
5780;BME280;2916;49.798;10.022;2023-08-31T02:44:11;147372.50;;;12.53;100.00
5780;BME280;2916;49.798;10.022;2023-08-31T02:46:40;147388.66;;;12.60;100.00
5780;BME280;2916;49.798;10.022;2023-08-31T02:49:07;147377.50;;;12.55;100.00
5780;BME280;2916;49.798;10.022;2023-08-31T02:51:34;147377.50;;;12.55;100.00
5780;BME280;2916;49.798;10.022;2023-08-31T02:54:01;147365.06;;;12.50;100.00
5780;BME280;2916;49.798;10.022;2023-08-31T02:56:29;147366.31;;;12.50;100.00
5780;BME280;2916;49.798;10.022;2023-08-31T02:58:56;147382.44;;;12.57;100.00
5780;BME280;2916;49.798;10.022;2023-08-31T03:01:23;147365.06;;;12.50;100.00
5780;BME280;2916;49.798;10.022;2023-08-31T03:03:51;147244.53;;;12.00;100.00
5780;BME280;2916;49.798;10.022;2023-08-31T03:06:19;147367.56;;;12.51;100.00
5780;BME280;2916;49.798;10.022;2023-08-31T03:08:46;147365.06;;;12.50;100.00
5780;BME280;2916;49.798;10.022;2023-08-31T03:11:13;147381.19;;;12.57;100.00
5780;BME280;2916;49.798;10.022;2023-08-31T03:13:41;147315.34;;;12.29;100.00
5780;BME280;2916;49.798;10.022;2023-08-31T03:16:09;147358.84;;;12.47;100.00
5780;BME280;2916;49.798;10.022;2023-08-31T03:18:36;147345.19;;;12.42;100.00
5780;BME280;2916;49.798;10.022;2023-08-31T03:21:04;147350.16;;;12.44;100.00
5780;BME280;2916;49.798;10.022;2023-08-31T03:23:31;147330.25;;;12.36;100.00
5780;BME280;2916;49.798;10.022;2023-08-31T03:25:58;147330.25;;;12.36;100.00
5780;BME280;2916;49.798;10.022;2023-08-31T03:28:25;147326.56;;;12.34;100.00
5780;BME280;2916;49.798;10.022;2023-08-31T03:30:56;147310.38;;;12.27;100.00
5780;BME280;2916;49.798;10.022;2023-08-31T03:33:24;147300.44;;;12.23;100.00
5780;BME280;2916;49.798;10.022;2023-08-31T03:35:51;147273.13;;;12.12;100.00
5780;BME280;2916;49.798;10.022;2023-08-31T03:38:19;147247.00;;;12.01;100.00
5780;BME280;2916;49.798;10.022;2023-08-31T03:40:53;147248.25;;;12.02;100.00
5780;BME280;2916;49.798;10.022;2023-08-31T03:43:21;147273.13;;;12.12;100.00
5780;BME280;2916;49.798;10.022;2023-08-31T03:45:48;147268.13;;;12.10;100.00
5780;BME280;2916;49.798;10.022;2023-08-31T03:48:16;147260.72;;;12.07;100.00
5780;BME280;2916;49.798;10.022;2023-08-31T03:50:43;147256.94;;;12.06;100.00
5780;BME280;2916;49.798;10.022;2023-08-31T03:53:10;147255.72;;;12.05;100.00
5780;BME280;2916;49.798;10.022;2023-08-31T03:55:38;147167.50;;;11.69;100.00
5780;BME280;2916;49.798;10.022;2023-08-31T03:58:05;147260.72;;;12.07;100.00
5780;BME280;2916;49.798;10.022;2023-08-31T04:00:32;147263.19;;;12.08;100.00
5780;BME280;2916;49.798;10.022;2023-08-31T04:02:59;147250.78;;;12.03;100.00
5780;BME280;2916;49.798;10.022;2023-08-31T04:05:27;147255.72;;;12.05;100.00
5780;BME280;2916;49.798;10.022;2023-08-31T04:07:54;147229.63;;;11.94;100.00
5780;BME280;2916;49.798;10.022;2023-08-31T04:10:21;147210.97;;;11.87;100.00
5780;BME280;2916;49.798;10.022;2023-08-31T04:12:51;147223.44;;;11.92;100.00
5780;BME280;2916;49.798;10.022;2023-08-31T04:15:18;147213.50;;;11.88;100.00
5780;BME280;2916;49.798;10.022;2023-08-31T04:17:45;147215.97;;;11.89;100.00
5780;BME280;2916;49.798;10.022;2023-08-31T04:20:12;147228.38;;;11.94;100.00
5780;BME280;2916;49.798;10.022;2023-08-31T04:22:39;147238.31;;;11.98;100.00
5780;BME280;2916;49.798;10.022;2023-08-31T04:25:07;147245.78;;;12.01;100.00
5780;BME280;2916;49.798;10.022;2023-08-31T04:27:34;147247.00;;;12.01;100.00
5780;BME280;2916;49.798;10.022;2023-08-31T04:30:08;147253.25;;;12.04;100.00
5780;BME280;2916;49.798;10.022;2023-08-31T04:32:36;147243.31;;;12.00;100.00
5780;BME280;2916;49.798;10.022;2023-08-31T04:35:04;147243.31;;;12.00;100.00
5780;BME280;2916;49.798;10.022;2023-08-31T04:37:32;147228.38;;;11.94;100.00
5780;BME280;2916;49.798;10.022;2023-08-31T04:39:59;147220.97;;;11.91;100.00
5780;BME280;2916;49.798;10.022;2023-08-31T04:42:26;147214.75;;;11.88;100.00
5780;BME280;2916;49.798;10.022;2023-08-31T04:44:53;147232.13;;;11.95;100.00
5780;BME280;2916;49.798;10.022;2023-08-31T04:47:22;147218.44;;;11.90;100.00
5780;BME280;2916;49.798;10.022;2023-08-31T04:49:49;147203.56;;;11.84;100.00
5780;BME280;2916;49.798;10.022;2023-08-31T04:52:16;147215.97;;;11.89;100.00
5780;BME280;2916;49.798;10.022;2023-08-31T04:54:43;147213.50;;;11.88;100.00
5780;BME280;2916;49.798;10.022;2023-08-31T04:57:10;147214.75;;;11.88;100.00
5780;BME280;2916;49.798;10.022;2023-08-31T04:59:37;147225.91;;;11.93;100.00
5780;BME280;2916;49.798;10.022;2023-08-31T05:02:04;147230.91;;;11.95;100.00
5780;BME280;2916;49.798;10.022;2023-08-31T05:04:33;147243.31;;;12.00;100.00
5780;BME280;2916;49.798;10.022;2023-08-31T05:07:00;147215.97;;;11.89;100.00
5780;BME280;2916;49.798;10.022;2023-08-31T05:09:27;147275.59;;;12.13;100.00
5780;BME280;2916;49.798;10.022;2023-08-31T05:11:58;147317.84;;;12.31;100.00
5780;BME280;2916;49.798;10.022;2023-08-31T05:14:25;147382.44;;;12.57;100.00
5780;BME280;2916;49.798;10.022;2023-08-31T05:16:52;147432.19;;;12.77;100.00
5780;BME280;2916;49.798;10.022;2023-08-31T05:19:19;147466.94;;;12.92;100.00
5780;BME280;2916;49.798;10.022;2023-08-31T05:21:48;147531.59;;;13.18;100.00
5780;BME280;2916;49.798;10.022;2023-08-31T05:24:15;147591.31;;;13.43;100.00
5780;BME280;2916;49.798;10.022;2023-08-31T05:26:42;147621.16;;;13.55;100.00
5780;BME280;2916;49.798;10.022;2023-08-31T05:29:09;147591.31;;;13.43;100.00
5780;BME280;2916;49.798;10.022;2023-08-31T05:31:36;147529.13;;;13.17;100.00
5780;BME280;2916;49.798;10.022;2023-08-31T05:34:03;147493.06;;;13.02;100.00
5780;BME280;2916;49.798;10.022;2023-08-31T05:36:30;147474.41;;;12.95;100.00
5780;BME280;2916;49.798;10.022;2023-08-31T05:38:59;147469.44;;;12.93;100.00
5780;BME280;2916;49.798;10.022;2023-08-31T05:41:26;147504.25;;;13.07;100.00
5780;BME280;2916;49.798;10.022;2023-08-31T05:43:53;147559.00;;;13.30;100.00
5780;BME280;2916;49.798;10.022;2023-08-31T05:46:20;147531.59;;;13.18;100.00
5780;BME280;2916;49.798;10.022;2023-08-31T05:48:47;147561.47;;;13.31;100.00
5780;BME280;2916;49.798;10.022;2023-08-31T05:51:14;147540.31;;;13.22;100.00
5780;BME280;2916;49.798;10.022;2023-08-31T05:53:42;147466.94;;;12.92;100.00
5780;BME280;2916;49.798;10.022;2023-08-31T05:56:10;147561.47;;;13.31;100.00
5780;BME280;2916;49.798;10.022;2023-08-31T05:58:37;147517.94;;;13.13;100.00
5780;BME280;2916;49.798;10.022;2023-08-31T06:01:05;147541.53;;;13.22;100.00
5780;BME280;2916;49.798;10.022;2023-08-31T06:03:33;147484.38;;;12.99;100.00
5780;BME280;2916;49.798;10.022;2023-08-31T06:06:01;147555.25;;;13.28;100.00
5780;BME280;2916;49.798;10.022;2023-08-31T06:08:28;147562.72;;;13.31;100.00
5780;BME280;2916;49.798;10.022;2023-08-31T06:10:56;147546.59;;;13.24;100.00
5780;BME280;2916;49.798;10.022;2023-08-31T06:13:24;147593.78;;;13.44;99.22
5780;BME280;2916;49.798;10.022;2023-08-31T06:15:52;147842.56;;;14.46;98.59
5780;BME280;2916;49.798;10.022;2023-08-31T06:18:21;148101.50;;;15.52;92.08
5780;BME280;2916;49.798;10.022;2023-08-31T06:20:49;148186.22;;;15.87;87.84
5780;BME280;2916;49.798;10.022;2023-08-31T06:23:16;148155.09;;;15.74;88.57
5780;BME280;2916;49.798;10.022;2023-08-31T06:25:43;148178.78;;;15.84;85.05
5780;BME280;2916;49.798;10.022;2023-08-31T06:28:11;148176.28;;;15.83;84.66
5780;BME280;2916;49.798;10.022;2023-08-31T06:30:41;148344.44;;;16.52;83.87
5780;BME280;2916;49.798;10.022;2023-08-31T06:33:12;148573.81;;;17.46;82.19
5780;BME280;2916;49.798;10.022;2023-08-31T06:35:39;148505.28;;;17.17;80.50
5780;BME280;2916;49.798;10.022;2023-08-31T06:38:06;148639.91;;;17.73;77.39
5780;BME280;2916;49.798;10.022;2023-08-31T06:40:33;148535.19;;;17.30;78.48
5780;BME280;2916;49.798;10.022;2023-08-31T06:43:00;148590.00;;;17.52;77.24
5780;BME280;2916;49.798;10.022;2023-08-31T06:45:29;148669.88;;;17.85;76.55
5780;BME280;2916;49.798;10.022;2023-08-31T06:47:57;148760.88;;;18.22;73.99
5780;BME280;2916;49.798;10.022;2023-08-31T06:50:25;148772.09;;;18.27;73.05
5780;BME280;2916;49.798;10.022;2023-08-31T06:52:52;148760.88;;;18.22;73.57
5780;BME280;2916;49.798;10.022;2023-08-31T06:55:19;148824.53;;;18.48;71.77
5780;BME280;2916;49.798;10.022;2023-08-31T06:57:46;148711.00;;;18.02;72.46
5780;BME280;2916;49.798;10.022;2023-08-31T07:00:14;148749.66;;;18.18;73.13
5780;BME280;2916;49.798;10.022;2023-08-31T07:02:42;148624.91;;;17.66;73.64
5780;BME280;2916;49.798;10.022;2023-08-31T07:05:11;149114.13;;;19.67;69.72
5780;BME280;2916;49.798;10.022;2023-08-31T07:07:38;149017.97;;;19.27;67.87
5780;BME280;2916;49.798;10.022;2023-08-31T07:10:07;149236.50;;;20.17;65.07
5780;BME280;2916;49.798;10.022;2023-08-31T07:12:34;149446.34;;;21.02;64.94
5780;BME280;2916;49.798;10.022;2023-08-31T07:15:01;149166.53;;;19.88;64.92
5780;BME280;2916;49.798;10.022;2023-08-31T07:17:29;149034.22;;;19.34;67.55
5780;BME280;2916;49.798;10.022;2023-08-31T07:19:56;148894.41;;;18.77;67.59
5780;BME280;2916;49.798;10.022;2023-08-31T07:22:25;149311.41;;;20.47;63.03
5780;BME280;2916;49.798;10.022;2023-08-31T07:24:52;149026.72;;;19.31;63.41
5780;BME280;2916;49.798;10.022;2023-08-31T07:27:19;149401.41;;;20.84;62.87
5780;BME280;2916;49.798;10.022;2023-08-31T07:29:46;149543.91;;;21.42;60.42
5780;BME280;2916;49.798;10.022;2023-08-31T07:32:13;149252.69;;;20.23;61.80
5780;BME280;2916;49.798;10.022;2023-08-31T07:34:40;149536.41;;;21.39;61.08
5780;BME280;2916;49.798;10.022;2023-08-31T07:37:07;149395.16;;;20.81;58.99
5780;BME280;2916;49.798;10.022;2023-08-31T07:39:36;149518.84;;;21.32;58.55
5780;BME280;2916;49.798;10.022;2023-08-31T07:42:05;149636.38;;;21.80;57.76
5780;BME280;2916;49.798;10.022;2023-08-31T07:44:32;149616.38;;;21.72;56.48
5780;BME280;2916;49.798;10.022;2023-08-31T07:46:59;149567.63;;;21.52;56.77
5780;BME280;2916;49.798;10.022;2023-08-31T07:49:27;149522.63;;;21.33;56.87
5780;BME280;2916;49.798;10.022;2023-08-31T07:51:54;149743.91;;;22.24;56.69
5780;BME280;2916;49.798;10.022;2023-08-31T07:54:21;149646.38;;;21.84;55.59
5780;BME280;2916;49.798;10.022;2023-08-31T07:56:50;149431.38;;;20.96;55.71
5780;BME280;2916;49.798;10.022;2023-08-31T07:59:17;149462.59;;;21.09;55.91
5780;BME280;2916;49.798;10.022;2023-08-31T08:01:46;149576.38;;;21.55;54.79
5780;BME280;2916;49.798;10.022;2023-08-31T08:04:13;149632.63;;;21.78;56.46
5780;BME280;2916;49.798;10.022;2023-08-31T08:06:40;149495.13;;;21.22;55.19
5780;BME280;2916;49.798;10.022;2023-08-31T08:09:08;149676.34;;;21.96;55.09
5780;BME280;2916;49.798;10.022;2023-08-31T08:11:35;149705.09;;;22.08;54.55
5780;BME280;2916;49.798;10.022;2023-08-31T08:14:04;149813.97;;;22.52;53.55
5780;BME280;2916;49.798;10.022;2023-08-31T08:16:31;149961.59;;;23.13;52.54
5780;BME280;2916;49.798;10.022;2023-08-31T08:18:58;149851.50;;;22.68;51.71
5780;BME280;2916;49.798;10.022;2023-08-31T08:21:25;149826.47;;;22.58;51.68
5780;BME280;2916;49.798;10.022;2023-08-31T08:23:52;149677.66;;;21.97;51.72
5780;BME280;2916;49.798;10.022;2023-08-31T08:26:20;149909.06;;;22.91;50.38
5780;BME280;2916;49.798;10.022;2023-08-31T08:28:47;149648.91;;;21.85;50.80
5780;BME280;2916;49.798;10.022;2023-08-31T08:31:15;149833.97;;;22.61;51.58
5780;BME280;2916;49.798;10.022;2023-08-31T08:33:42;150121.81;;;23.78;49.67
5780;BME280;2916;49.798;10.022;2023-08-31T08:36:09;149906.50;;;22.90;51.18
5780;BME280;2916;49.798;10.022;2023-08-31T08:38:36;149648.91;;;21.85;53.04
5780;BME280;2916;49.798;10.022;2023-08-31T08:41:05;149553.91;;;21.46;53.36
5780;BME280;2916;49.798;10.022;2023-08-31T08:43:34;149546.41;;;21.43;53.70
5780;BME280;2916;49.798;10.022;2023-08-31T08:46:05;149473.84;;;21.14;53.39
5780;BME280;2916;49.798;10.022;2023-08-31T08:48:36;149438.91;;;20.99;53.53
5780;BME280;2916;49.798;10.022;2023-08-31T08:51:05;149521.38;;;21.33;52.60
5780;BME280;2916;49.798;10.022;2023-08-31T08:53:34;149500.09;;;21.24;52.35
5780;BME280;2916;49.798;10.022;2023-08-31T08:56:04;149363.94;;;20.69;53.79
5780;BME280;2916;49.798;10.022;2023-08-31T08:58:31;149563.91;;;21.50;52.34
5780;BME280;2916;49.798;10.022;2023-08-31T09:00:58;149542.63;;;21.42;51.96
5780;BME280;2916;49.798;10.022;2023-08-31T09:03:25;149768.94;;;22.34;52.13
5780;BME280;2916;49.798;10.022;2023-08-31T09:05:54;149546.41;;;21.43;52.10
5780;BME280;2916;49.798;10.022;2023-08-31T09:08:27;149552.66;;;21.46;52.98
5780;BME280;2916;49.798;10.022;2023-08-31T09:10:56;149518.84;;;21.32;53.13
5780;BME280;2916;49.798;10.022;2023-08-31T09:13:27;149408.91;;;20.87;53.39
5780;BME280;2916;49.798;10.022;2023-08-31T09:15:56;149442.63;;;21.01;53.89
5780;BME280;2916;49.798;10.022;2023-08-31T09:18:26;149373.91;;;20.73;54.94
5780;BME280;2916;49.798;10.022;2023-08-31T09:20:56;149367.66;;;20.70;54.87
5780;BME280;2916;49.798;10.022;2023-08-31T09:23:23;149372.69;;;20.72;54.68
5780;BME280;2916;49.798;10.022;2023-08-31T09:25:52;149356.44;;;20.66;55.00
5780;BME280;2916;49.798;10.022;2023-08-31T09:28:23;149396.38;;;20.82;54.26
5780;BME280;2916;49.798;10.022;2023-08-31T09:30:53;149527.66;;;21.36;54.71
5780;BME280;2916;49.798;10.022;2023-08-31T09:33:20;149501.34;;;21.25;52.95
5780;BME280;2916;49.798;10.022;2023-08-31T09:35:51;149576.38;;;21.55;53.56
5780;BME280;2916;49.798;10.022;2023-08-31T09:38:19;149613.88;;;21.71;52.90
5780;BME280;2916;49.798;10.022;2023-08-31T09:40:47;149785.22;;;22.41;51.92
5780;BME280;2916;49.798;10.022;2023-08-31T09:43:20;149777.69;;;22.38;51.78
5780;BME280;2916;49.798;10.022;2023-08-31T09:45:49;149747.69;;;22.25;51.54
5780;BME280;2916;49.798;10.022;2023-08-31T09:48:17;149718.94;;;22.14;50.58
5780;BME280;2916;49.798;10.022;2023-08-31T09:50:45;149647.59;;;21.85;50.04
5780;BME280;2916;49.798;10.022;2023-08-31T09:53:16;149568.88;;;21.52;51.17
5780;BME280;2916;49.798;10.022;2023-08-31T09:55:47;149693.88;;;22.03;51.71
5780;BME280;2916;49.798;10.022;2023-08-31T09:58:18;149648.91;;;21.85;50.95
5780;BME280;2916;49.798;10.022;2023-08-31T10:00:48;149527.66;;;21.36;51.92
5780;BME280;2916;49.798;10.022;2023-08-31T10:03:16;149456.38;;;21.06;52.36
5780;BME280;2916;49.798;10.022;2023-08-31T10:05:44;149481.34;;;21.17;52.40
5780;BME280;2916;49.798;10.022;2023-08-31T10:08:12;149460.13;;;21.08;52.19
5780;BME280;2916;49.798;10.022;2023-08-31T10:10:40;149463.84;;;21.09;52.49
5780;BME280;2916;49.798;10.022;2023-08-31T10:13:09;149445.09;;;21.02;53.20
5780;BME280;2916;49.798;10.022;2023-08-31T10:15:38;149481.34;;;21.17;54.28
5780;BME280;2916;49.798;10.022;2023-08-31T10:18:06;149428.91;;;20.95;52.02
5780;BME280;2916;49.798;10.022;2023-08-31T10:20:34;149483.84;;;21.18;52.86
5780;BME280;2916;49.798;10.022;2023-08-31T10:23:04;149398.94;;;20.83;53.25
5780;BME280;2916;49.798;10.022;2023-08-31T10:26:02;149616.38;;;21.72;52.53
5780;BME280;2916;49.798;10.022;2023-08-31T10:28:42;149685.09;;;22.00;51.26
5780;BME280;2916;49.798;10.022;2023-08-31T10:31:16;149640.16;;;21.81;51.14
5780;BME280;2916;49.798;10.022;2023-08-31T10:33:44;149608.84;;;21.69;51.39
5780;BME280;2916;49.798;10.022;2023-08-31T10:36:14;149812.72;;;22.52;50.07
5780;BME280;2916;49.798;10.022;2023-08-31T10:38:44;149892.75;;;22.85;50.06
5780;BME280;2916;49.798;10.022;2023-08-31T10:41:22;149827.69;;;22.58;48.61
5780;BME280;2916;49.798;10.022;2023-08-31T10:43:54;149677.66;;;21.97;49.47
5780;BME280;2916;49.798;10.022;2023-08-31T10:46:30;149616.38;;;21.72;49.49
5780;BME280;2916;49.798;10.022;2023-08-31T10:48:59;149578.88;;;21.56;50.17
5780;BME280;2916;49.798;10.022;2023-08-31T10:51:29;149521.38;;;21.33;49.98
5780;BME280;2916;49.798;10.022;2023-08-31T10:54:08;149488.88;;;21.20;50.39
5780;BME280;2916;49.798;10.022;2023-08-31T10:57:01;149507.59;;;21.27;50.24
5780;BME280;2916;49.798;10.022;2023-08-31T10:59:47;149403.91;;;20.85;51.00
5780;BME280;2916;49.798;10.022;2023-08-31T11:02:33;149391.41;;;20.80;52.43
5780;BME280;2916;49.798;10.022;2023-08-31T11:05:06;149453.88;;;21.05;51.06
5780;BME280;2916;49.798;10.022;2023-08-31T11:07:34;149557.63;;;21.48;50.85
5780;BME280;2916;49.798;10.022;2023-08-31T11:10:16;149436.34;;;20.98;51.18
5780;BME280;2916;49.798;10.022;2023-08-31T11:12:45;149493.84;;;21.22;52.19
5780;BME280;2916;49.798;10.022;2023-08-31T11:15:17;149436.34;;;20.98;52.34
5780;BME280;2916;49.798;10.022;2023-08-31T11:17:45;149460.13;;;21.08;52.33
5780;BME280;2916;49.798;10.022;2023-08-31T11:20:18;149406.38;;;20.86;51.00
5780;BME280;2916;49.798;10.022;2023-08-31T11:22:47;149282.66;;;20.35;53.18
5780;BME280;2916;49.798;10.022;2023-08-31T11:25:17;149352.69;;;20.64;53.83
5780;BME280;2916;49.798;10.022;2023-08-31T11:27:54;149332.72;;;20.56;52.30
5780;BME280;2916;49.798;10.022;2023-08-31T11:30:23;149295.19;;;20.41;53.81
5780;BME280;2916;49.798;10.022;2023-08-31T11:32:52;149281.44;;;20.35;52.81
5780;BME280;2916;49.798;10.022;2023-08-31T11:35:22;149219.00;;;20.09;54.85
5780;BME280;2916;49.798;10.022;2023-08-31T11:37:51;149350.16;;;20.63;55.02
5780;BME280;2916;49.798;10.022;2023-08-31T11:40:19;149356.44;;;20.66;53.13
5780;BME280;2916;49.798;10.022;2023-08-31T11:42:47;149331.47;;;20.55;53.56
5780;BME280;2916;49.798;10.022;2023-08-31T11:45:15;149301.41;;;20.43;54.01
5780;BME280;2916;49.798;10.022;2023-08-31T11:47:44;149382.66;;;20.76;53.90
5780;BME280;2916;49.798;10.022;2023-08-31T11:50:14;149327.69;;;20.54;54.31
5780;BME280;2916;49.798;10.022;2023-08-31T11:52:43;149182.78;;;19.95;54.32
5780;BME280;2916;49.798;10.022;2023-08-31T11:55:11;149313.94;;;20.48;53.09
5780;BME280;2916;49.798;10.022;2023-08-31T11:57:39;149179.06;;;19.93;54.41
5780;BME280;2916;49.798;10.022;2023-08-31T12:00:08;149421.41;;;20.92;53.46
5780;BME280;2916;49.798;10.022;2023-08-31T12:02:36;149461.38;;;21.08;52.64
5780;BME280;2916;49.798;10.022;2023-08-31T12:05:06;149363.94;;;20.69;53.27
5780;BME280;2916;49.798;10.022;2023-08-31T12:07:39;149461.38;;;21.08;52.67
5780;BME280;2916;49.798;10.022;2023-08-31T12:10:08;149513.88;;;21.30;51.85
5780;BME280;2916;49.798;10.022;2023-08-31T12:12:36;149582.66;;;21.58;52.49
5780;BME280;2916;49.798;10.022;2023-08-31T12:15:05;149621.38;;;21.74;51.40
5780;BME280;2916;49.798;10.022;2023-08-31T12:17:31;149698.88;;;22.05;51.33
5780;BME280;2916;49.798;10.022;2023-08-31T12:20:05;149711.38;;;22.11;50.34
5780;BME280;2916;49.798;10.022;2023-08-31T12:22:33;149696.34;;;22.04;49.27
5780;BME280;2916;49.798;10.022;2023-08-31T12:25:01;149658.91;;;21.89;48.79
5780;BME280;2916;49.798;10.022;2023-08-31T12:27:28;149758.94;;;22.30;47.68
5780;BME280;2916;49.798;10.022;2023-08-31T12:29:55;149753.91;;;22.28;46.52
5780;BME280;2916;49.798;10.022;2023-08-31T12:32:23;149733.91;;;22.20;47.68
5780;BME280;2916;49.798;10.022;2023-08-31T12:34:50;149708.88;;;22.10;47.89
5780;BME280;2916;49.798;10.022;2023-08-31T12:37:18;149686.34;;;22.00;49.50
5780;BME280;2916;49.798;10.022;2023-08-31T12:39:45;149666.34;;;21.92;47.88
5780;BME280;2916;49.798;10.022;2023-08-31T12:42:14;149698.88;;;22.05;48.01
5780;BME280;2916;49.798;10.022;2023-08-31T12:44:41;149686.34;;;22.00;48.08
5780;BME280;2916;49.798;10.022;2023-08-31T12:47:09;149567.63;;;21.52;48.10
5780;BME280;2916;49.798;10.022;2023-08-31T12:49:36;149613.88;;;21.71;47.35
5780;BME280;2916;49.798;10.022;2023-08-31T12:52:04;149633.88;;;21.79;47.90
5780;BME280;2916;49.798;10.022;2023-08-31T12:54:33;149667.59;;;21.93;46.93
5780;BME280;2916;49.798;10.022;2023-08-31T12:57:00;149673.88;;;21.95;47.34
5780;BME280;2916;49.798;10.022;2023-08-31T12:59:28;149640.16;;;21.81;47.08
5780;BME280;2916;49.798;10.022;2023-08-31T13:01:55;149558.88;;;21.48;48.45
5780;BME280;2916;49.798;10.022;2023-08-31T13:04:23;149448.88;;;21.03;49.19